Time;durP1;ratioP1;P1;durP2;ratioP2;P2;SDS_P1;SDS_P2;PMS_P1;PMS_P2;Temp;Humidity;BMP_temperature;BMP_pressure;BME280_temperature;BME280_humidity;BME280_pressure;Samples;Min_cycle;Max_cycle;Signal;HPM_P1;HPM_P2
2022/11/10 00:00:37;;;;;;;10.10;8.95;;;;;;;15.72;54.26;102538.13;1665711;84;21183;-49
2022/11/10 00:03:22;;;;;;;9.55;8.40;;;;;;;15.73;54.25;102542.48;1663519;84;21558;-50
2022/11/10 00:06:09;;;;;;;10.88;8.30;;;;;;;15.72;54.14;102534.64;1667540;84;21124;-50
2022/11/10 00:08:53;;;;;;;11.45;8.68;;;;;;;15.71;54.25;102535.07;1671673;84;21077;-51
2022/11/10 00:11:41;;;;;;;9.88;8.43;;;;;;;15.71;54.19;102532.89;1679813;85;21510;-50
2022/11/10 00:17:33;;;;;;;10.93;8.78;;;;;;;15.73;54.07;102531.98;1761106;80;21077;-50
2022/11/10 00:20:18;;;;;;;9.55;8.55;;;;;;;15.74;54.07;102529.80;1764073;80;21019;-50
2022/11/10 00:23:04;;;;;;;11.68;8.68;;;;;;;15.73;54.05;102529.36;1758576;80;21493;-51
2022/11/10 00:25:50;;;;;;;9.83;8.23;;;;;;;15.72;54.08;102529.39;1768173;80;21011;-50
2022/11/10 00:28:37;;;;;;;8.73;7.83;;;;;;;15.71;54.16;102530.27;1759204;81;21502;-50
2022/11/10 00:31:23;;;;;;;10.38;8.43;;;;;;;15.67;54.24;102532.07;1758380;80;21026;-49
2022/11/10 00:34:12;;;;;;;9.33;7.75;;;;;;;15.65;54.30;102529.91;1758561;80;21027;-50
2022/11/10 00:36:57;;;;;;;10.43;8.43;;;;;;;15.65;54.38;102532.54;1745310;80;21063;-51
2022/11/10 00:39:42;;;;;;;8.70;7.30;;;;;;;15.65;54.40;102527.29;1761775;80;21061;-51
2022/11/10 00:42:27;;;;;;;7.97;7.17;;;;;;;15.65;54.34;102525.98;1755938;80;21058;-51
2022/11/10 00:45:12;;;;;;;9.00;7.37;;;;;;;15.66;54.47;102531.63;1756147;80;21033;-51
2022/11/10 00:47:58;;;;;;;7.75;6.90;;;;;;;15.66;54.26;102526.38;1750203;80;21062;-51
2022/11/10 00:50:43;;;;;;;8.35;7.03;;;;;;;15.62;54.26;102526.01;1758961;80;21022;-51
2022/11/10 00:53:28;;;;;;;6.95;6.25;;;;;;;15.61;54.03;102522.98;1748440;80;21065;-50
2022/11/10 00:56:14;;;;;;;8.15;6.17;;;;;;;15.58;53.93;102521.70;1757319;80;21097;-50
2022/11/10 00:58:59;;;;;;;8.23;7.00;;;;;;;15.57;53.87;102521.30;1754373;80;21002;-50
2022/11/10 01:01:45;;;;;;;8.48;7.22;;;;;;;15.61;53.94;102520.80;1759372;80;21012;-50
2022/11/10 01:04:30;;;;;;;12.98;8.30;;;;;;;15.63;54.03;102522.52;1761048;80;21603;-50
2022/11/10 01:07:16;;;;;;;8.43;7.60;;;;;;;15.64;53.99;102520.77;1765300;80;21080;-50
2022/11/10 01:10:01;;;;;;;9.28;7.20;;;;;;;15.62;54.12;102519.45;1758627;81;21028;-51
2022/11/10 01:12:47;;;;;;;9.93;8.08;;;;;;;15.60;54.25;102522.54;1768016;80;21027;-50
2022/11/10 01:15:32;;;;;;;10.32;7.70;;;;;;;15.62;54.25;102523.38;1759312;80;21055;-50
2022/11/10 01:18:18;;;;;;;8.88;8.08;;;;;;;15.62;54.17;102521.23;1742919;80;21037;-50
2022/11/10 01:21:04;;;;;;;11.05;9.53;;;;;;;15.60;54.27;102523.01;1756149;80;22093;-50
2022/11/10 01:23:49;;;;;;;11.65;9.30;;;;;;;15.60;54.41;102522.54;1744472;80;21737;-50
2022/11/10 01:26:34;;;;;;;11.28;9.43;;;;;;;15.59;54.47;102523.45;1765271;80;21070;-51
2022/11/10 01:29:20;;;;;;;11.15;9.85;;;;;;;15.57;54.50;102518.67;1758107;81;21065;-49
2022/11/10 01:32:05;;;;;;;12.68;10.40;;;;;;;15.56;54.61;102526.09;1746359;80;21534;-53
2022/11/10 01:34:50;;;;;;;12.25;10.68;;;;;;;15.56;54.71;102527.41;1760963;81;21061;-50
2022/11/10 01:37:36;;;;;;;11.90;10.68;;;;;;;15.55;54.94;102521.76;1757867;80;21114;-50
2022/11/10 01:40:21;;;;;;;14.65;11.85;;;;;;;15.57;55.11;102526.53;1764622;80;21075;-50
2022/11/10 01:43:08;;;;;;;15.68;11.73;;;;;;;15.58;55.17;102520.85;1763330;80;21034;-50
2022/11/10 01:46:02;;;;;;;15.78;12.40;;;;;;;15.57;55.19;102517.35;1745717;81;21030;-50
2022/11/10 01:48:58;;;;;;;15.58;12.55;;;;;;;15.60;55.29;102517.77;1678390;84;21075;-50
2022/11/10 01:52:08;;;;;;;15.50;12.88;;;;;;;15.60;55.51;102519.92;1760604;80;21058;-50
2022/11/10 01:54:53;;;;;;;13.28;11.88;;;;;;;15.61;55.48;102514.23;1751699;80;20987;-50
2022/11/10 01:57:40;;;;;;;13.75;11.63;;;;;;;15.62;55.47;102520.76;1742458;80;20983;-50
2022/11/10 02:00:25;;;;;;;15.18;12.88;;;;;;;15.66;55.29;102522.45;1754699;80;21042;-50
2022/11/10 02:03:50;;;;;;;14.33;12.82;;;;;;;15.70;55.26;102516.73;1745454;81;21034;-50
2022/11/10 02:06:40;;;;;;;14.83;12.82;;;;;;;15.73;55.18;102524.55;1760278;80;21002;-50
2022/11/10 02:09:26;;;;;;;15.20;12.13;;;;;;;15.74;55.38;102517.98;1761142;80;20986;-51
2022/11/10 02:12:11;;;;;;;14.87;13.25;;;;;;;15.73;55.35;102522.80;1765272;80;21506;-50
2022/11/10 02:14:57;;;;;;;16.20;12.82;;;;;;;15.74;55.36;102523.23;1762904;80;21586;-51
2022/11/10 02:17:46;;;;;;;15.78;12.45;;;;;;;15.75;55.36;102524.95;1769142;80;21503;-51
2022/11/10 02:20:31;;;;;;;14.40;12.58;;;;;;;15.74;55.43;102530.23;1774289;80;21030;-51
2022/11/10 02:23:38;;;;;;;13.58;12.28;;;;;;;15.75;55.52;102534.14;1770120;80;21086;-50
2022/11/10 02:26:26;;;;;;;13.30;11.95;;;;;;;15.77;55.36;102531.05;1761711;80;21065;-50
2022/11/10 02:29:12;;;;;;;13.72;12.30;;;;;;;15.78;55.18;102532.80;1751145;80;21038;-51
2022/11/10 02:31:58;;;;;;;17.32;12.55;;;;;;;15.81;55.08;102527.48;1747083;81;21513;-50
2022/11/10 02:34:44;;;;;;;13.40;12.00;;;;;;;15.83;54.99;102524.83;1758110;80;21036;-50
2022/11/10 02:37:30;;;;;;;13.28;11.95;;;;;;;15.82;55.02;102527.05;1755204;80;20999;-50
2022/11/10 02:40:16;;;;;;;14.03;11.90;;;;;;;15.84;55.03;102527.45;1750471;80;21045;-50
2022/11/10 02:43:03;;;;;;;13.70;12.35;;;;;;;15.86;54.98;102524.79;1761937;80;21561;-50
2022/11/10 02:45:49;;;;;;;13.05;11.75;;;;;;;15.88;54.98;102523.01;1758695;80;20998;-49
2022/11/10 02:48:34;;;;;;;12.45;11.15;;;;;;;15.90;54.83;102525.16;1755069;80;21031;-50
2022/11/10 02:51:20;;;;;;;12.80;11.03;;;;;;;15.89;54.92;102532.63;1741733;80;21117;-49
2022/11/10 02:54:05;;;;;;;11.73;10.53;;;;;;;15.85;54.87;102527.85;1774196;80;21011;-50
2022/11/10 02:56:50;;;;;;;13.10;10.93;;;;;;;15.83;55.09;102532.27;1764264;80;21495;-49
2022/11/10 02:59:36;;;;;;;12.60;10.75;;;;;;;15.82;55.23;102535.80;1772354;80;21033;-50
2022/11/10 03:02:21;;;;;;;14.60;12.58;;;;;;;15.81;55.30;102540.60;1760877;80;21984;-49
2022/11/10 03:05:08;;;;;;;17.10;12.82;;;;;;;15.78;55.45;102539.36;1746478;80;21055;-49
2022/11/10 03:07:57;;;;;;;15.72;14.13;;;;;;;15.77;55.41;102534.98;1760221;80;21566;-49
2022/11/10 03:10:42;;;;;;;17.02;15.18;;;;;;;15.76;55.37;102534.58;1753214;80;21021;-50
2022/11/10 03:13:27;;;;;;;19.32;15.68;;;;;;;15.74;55.47;102536.36;1748474;80;21066;-50
2022/11/10 03:16:12;;;;;;;18.90;14.75;;;;;;;15.78;55.51;102532.80;1755244;80;21082;-51
2022/11/10 03:18:57;;;;;;;16.45;13.20;;;;;;;15.78;55.49;102528.86;1762534;80;21047;-49
2022/11/10 03:21:42;;;;;;;13.50;11.78;;;;;;;15.76;55.34;102530.64;1763431;80;21042;-49
2022/11/10 03:24:27;;;;;;;13.40;11.35;;;;;;;15.75;55.34;102521.02;1749021;80;21073;-50
2022/11/10 03:27:12;;;;;;;14.28;10.50;;;;;;;15.77;55.44;102524.92;1772132;80;21038;-50
2022/11/10 03:29:58;;;;;;;11.22;9.90;;;;;;;15.76;55.45;102530.64;1761269;80;20986;-49
2022/11/10 03:32:44;;;;;;;9.38;7.87;;;;;;;15.76;55.39;102531.08;1757266;80;21027;-49
2022/11/10 03:35:30;;;;;;;8.13;7.10;;;;;;;15.76;55.39;102534.58;1762177;81;21074;-49
2022/11/10 03:38:15;;;;;;;7.83;6.70;;;;;;;15.74;55.26;102534.17;1761053;80;20998;-50
2022/11/10 03:41:00;;;;;;;9.75;6.80;;;;;;;15.72;55.32;102527.64;1731529;82;21018;-49
2022/11/10 03:43:46;;;;;;;8.25;6.83;;;;;;;15.73;55.36;102531.11;1746211;80;21090;-50
2022/11/10 03:46:32;;;;;;;6.75;5.92;;;;;;;15.72;55.35;102531.58;1761706;80;21027;-50
2022/11/10 03:49:18;;;;;;;7.65;6.80;;;;;;;15.71;55.40;102524.58;1760378;80;21045;-49
2022/11/10 03:52:04;;;;;;;7.83;6.58;;;;;;;15.70;55.47;102528.55;1747194;80;21011;-49
2022/11/10 03:54:49;;;;;;;6.97;6.28;;;;;;;15.71;55.50;102523.70;1767194;80;20994;-49
2022/11/10 03:57:34;;;;;;;7.55;5.72;;;;;;;15.73;55.42;102526.73;1751067;80;21041;-49
2022/11/10 04:00:20;;;;;;;6.15;5.22;;;;;;;15.72;55.58;102527.64;1755882;80;21002;-52
2022/11/10 04:03:05;;;;;;;6.17;5.17;;;;;;;15.71;55.57;102527.20;1758238;80;21034;-50
2022/11/10 04:08:59;;;;;;;6.70;5.80;;;;;;;15.69;55.79;102523.73;1753620;80;21070;-50
2022/11/10 04:17:52;;;;;;;9.70;5.97;;;;;;;15.68;55.78;102533.83;1773744;80;21004;-49
2022/11/10 04:20:39;;;;;;;8.33;5.80;;;;;;;15.68;55.86;102531.20;1748250;81;21458;-49
2022/11/10 04:23:35;;;;;;;6.78;5.22;;;;;;;15.65;55.79;102536.48;1749094;80;21022;-49
2022/11/10 04:26:28;;;;;;;6.60;5.28;;;;;;;15.64;55.79;102541.29;1656267;85;21116;-49
2022/11/10 04:29:17;;;;;;;12.15;5.83;;;;;;;15.63;55.89;102542.19;1657563;85;21129;-50
2022/11/10 04:32:03;;;;;;;6.50;5.20;;;;;;;15.62;55.91;102543.06;1659419;85;21056;-49
2022/11/10 04:34:48;;;;;;;6.28;5.08;;;;;;;15.61;55.87;102542.66;1662424;85;21031;-49
2022/11/10 04:37:34;;;;;;;6.80;5.40;;;;;;;15.61;56.03;102545.28;1668654;84;21510;-50
2022/11/10 04:40:20;;;;;;;7.05;4.90;;;;;;;15.61;56.13;102542.66;1661629;84;21030;-49
2022/11/10 04:43:05;;;;;;;7.50;5.85;;;;;;;15.61;56.11;102545.28;1665484;84;21601;-49
2022/11/10 04:45:51;;;;;;;8.48;5.55;;;;;;;15.61;56.19;102545.28;1661572;85;21078;-49
2022/11/10 04:48:37;;;;;;;9.70;4.95;;;;;;;15.62;56.21;102548.31;1664677;85;21094;-49
2022/11/10 04:51:26;;;;;;;8.98;5.92;;;;;;;15.64;56.27;102546.53;1659013;85;21081;-49
2022/11/10 04:54:11;;;;;;;6.72;5.60;;;;;;;15.66;56.29;102553.94;1676917;84;21030;-50
2022/11/10 04:56:56;;;;;;;8.08;5.47;;;;;;;15.68;56.21;102548.26;1612574;86;21041;-50
2022/11/10 04:59:42;;;;;;;6.95;4.97;;;;;;;15.71;56.13;102552.13;1680408;84;21002;-49
2022/11/10 05:02:27;;;;;;;7.25;5.37;;;;;;;15.74;56.10;102548.16;1658989;85;21102;-49
2022/11/10 05:05:12;;;;;;;8.38;5.67;;;;;;;15.74;56.20;102549.48;1657815;85;21045;-49
2022/11/10 05:07:59;;;;;;;7.30;4.95;;;;;;;15.74;56.29;102549.48;1667392;85;21529;-50
2022/11/10 05:10:44;;;;;;;5.75;5.25;;;;;;;15.75;56.35;102554.26;1661637;85;21055;-50
2022/11/10 05:13:29;;;;;;;6.65;5.50;;;;;;;15.74;56.45;102556.04;1622284;87;21098;-49
2022/11/10 05:16:14;;;;;;;8.18;5.35;;;;;;;15.74;56.41;102561.73;1673841;84;21542;-49
2022/11/10 05:19:00;;;;;;;7.42;5.42;;;;;;;15.75;56.50;102563.01;1674516;84;21062;-49
2022/11/10 05:21:45;;;;;;;6.12;5.10;;;;;;;15.78;56.49;102565.60;1669174;81;21042;-49
2022/11/10 05:24:30;;;;;;;6.80;5.33;;;;;;;15.79;56.61;102567.76;1753685;80;21073;-49
2022/11/10 05:27:15;;;;;;;4.85;4.42;;;;;;;15.82;56.55;102562.48;1756761;80;20994;-50
2022/11/10 05:30:00;;;;;;;7.92;5.25;;;;;;;15.81;56.48;102576.04;1761899;80;21023;-49
2022/11/10 05:32:45;;;;;;;6.12;5.53;;;;;;;15.83;56.57;102587.83;1756915;80;21015;-49
2022/11/10 05:35:31;;;;;;;7.55;5.20;;;;;;;15.85;56.38;102581.67;1758751;80;21526;-49
2022/11/10 05:38:16;;;;;;;9.20;5.62;;;;;;;15.90;56.36;102589.48;1760164;80;20988;-49
2022/11/10 07:53:13;;;;;;;11.15;8.68;;;;;;;14.06;66.83;102656.42;1798383;78;26035;-50
2022/11/10 07:55:58;;;;;;;10.20;8.55;;;;;;;15.43;61.57;102658.34;1724014;82;21115;-50
2022/11/10 07:58:43;;;;;;;9.73;8.73;;;;;;;15.79;60.24;102655.25;1688417;83;21015;-51
2022/11/10 08:01:28;;;;;;;10.90;7.83;;;;;;;15.98;59.72;102659.38;1696596;83;21519;-50
2022/11/10 08:04:13;;;;;;;9.23;7.58;;;;;;;16.13;58.86;102656.55;1694660;83;21106;-50
2022/11/10 08:06:58;;;;;;;11.83;8.08;;;;;;;16.28;58.24;102660.23;1680016;84;21073;-50
2022/11/10 08:09:43;;;;;;;9.58;7.15;;;;;;;16.43;57.71;102663.51;1679973;83;21080;-51
2022/11/10 08:12:28;;;;;;;9.20;7.45;;;;;;;16.56;57.23;102662.47;1703934;83;21067;-51
2022/11/10 08:15:14;;;;;;;10.40;7.55;;;;;;;16.68;56.56;102662.27;1696823;83;21051;-51
2022/11/10 08:18:06;;;;;;;11.53;7.05;;;;;;;16.81;56.26;102665.11;1679945;83;21063;-50
2022/11/10 08:20:51;;;;;;;9.75;7.03;;;;;;;16.94;55.92;102660.04;1692967;83;21051;-50
2022/11/10 08:23:37;;;;;;;8.93;7.05;;;;;;;17.04;55.40;102660.33;1712527;83;21080;-50
2022/11/10 08:26:23;;;;;;;10.68;6.97;;;;;;;17.16;55.04;102657.46;1703224;83;21049;-52
2022/11/10 08:29:08;;;;;;;10.15;7.22;;;;;;;17.25;54.53;102661.21;1704833;83;21594;-51
2022/11/10 08:31:54;;;;;;;8.60;7.15;;;;;;;17.32;54.25;102666.79;1701577;83;21070;-51
2022/11/10 08:34:39;;;;;;;7.78;6.55;;;;;;;17.39;53.96;102664.47;1706503;83;21605;-51
2022/11/10 08:37:26;;;;;;;8.05;6.62;;;;;;;17.46;53.67;102661.23;1703612;83;21070;-50
2022/11/10 08:40:12;;;;;;;9.18;6.97;;;;;;;17.51;53.35;102662.94;1714854;83;21043;-50
2022/11/10 08:42:59;;;;;;;6.47;5.85;;;;;;;17.56;53.04;102667.64;1700117;83;21522;-51
2022/11/10 08:45:44;;;;;;;8.88;6.20;;;;;;;17.59;52.58;102669.35;1672129;85;21087;-51
2022/11/10 08:48:30;;;;;;;10.28;6.35;;;;;;;17.63;52.69;102671.90;1670458;84;21708;-51
2022/11/10 08:51:15;;;;;;;8.40;6.45;;;;;;;17.65;52.67;102676.68;1664301;85;21062;-50
2022/11/10 08:54:00;;;;;;;8.70;5.45;;;;;;;17.69;52.64;102666.50;1707782;83;21061;-51
2022/11/10 08:56:47;;;;;;;8.08;5.95;;;;;;;17.73;52.39;102664.66;1702665;83;21042;-50
2022/11/10 08:59:32;;;;;;;6.10;5.50;;;;;;;17.78;52.08;102667.61;1702892;83;21609;-51
2022/11/10 09:02:17;;;;;;;7.83;5.87;;;;;;;17.85;52.02;102663.95;1709507;83;21582;-51
2022/11/10 09:05:05;;;;;;;6.17;5.58;;;;;;;17.89;51.68;102665.62;1667416;84;21154;-51
2022/11/10 09:07:51;;;;;;;7.55;5.35;;;;;;;17.93;51.55;102662.94;1653491;86;21099;-49
2022/11/10 09:10:41;;;;;;;6.17;5.30;;;;;;;17.95;51.85;102665.09;1672607;85;21043;-49
2022/11/10 09:13:28;;;;;;;8.57;5.50;;;;;;;17.96;51.59;102658.90;1624118;87;21513;-51
2022/11/10 09:16:15;;;;;;;5.70;5.03;;;;;;;17.97;51.57;102659.33;1631303;86;21037;-50
2022/11/10 09:19:00;;;;;;;6.87;5.30;;;;;;;18.00;51.64;102661.88;1628368;87;21092;-50
2022/11/10 09:21:46;;;;;;;6.50;5.28;;;;;;;18.04;51.35;102668.81;1634069;88;21041;-50
2022/11/10 09:24:31;;;;;;;6.60;5.90;;;;;;;18.07;51.18;102660.86;1627797;86;21539;-50
2022/11/10 09:27:17;;;;;;;7.87;5.72;;;;;;;18.07;51.53;102662.17;1635212;88;21022;-50
2022/11/10 09:30:06;;;;;;;10.18;5.90;;;;;;;18.08;51.48;102662.57;1630405;87;21057;-50
2022/11/10 09:32:58;;;;;;;6.80;5.75;;;;;;;18.10;51.46;102660.77;1630574;86;21177;-51
2022/11/10 09:35:44;;;;;;;7.42;5.90;;;;;;;18.12;51.36;102662.92;1631857;87;21016;-51
2022/11/10 09:38:29;;;;;;;7.97;6.10;;;;;;;18.13;51.15;102662.91;1631746;87;21582;-50
2022/11/10 09:41:14;;;;;;;5.85;5.22;;;;;;;18.17;51.45;102663.69;1641289;85;21023;-50
2022/11/10 09:44:17;;;;;;;11.10;6.20;;;;;;;18.23;51.63;102662.23;1685748;85;21515;-50
2022/11/10 09:47:15;;;;;;;7.50;6.30;;;;;;;18.30;51.15;102662.52;1720110;83;21030;-50
2022/11/10 09:50:01;;;;;;;6.62;5.62;;;;;;;18.35;50.68;102661.94;1706373;82;21073;-50
2022/11/10 09:52:46;;;;;;;7.25;5.97;;;;;;;18.35;50.51;102665.45;1684755;82;21101;-50
2022/11/10 09:55:43;;;;;;;6.28;5.37;;;;;;;18.33;50.64;102669.89;1680111;82;21137;-50
2022/11/10 09:58:39;;;;;;;6.58;5.70;;;;;;;18.34;50.87;102665.50;1701917;83;21014;-51
2022/11/10 10:01:47;;;;;;;7.33;5.45;;;;;;;18.34;50.94;102665.50;1630807;87;21102;-51
2022/11/10 10:04:39;;;;;;;6.83;5.25;;;;;;;18.34;50.47;102668.13;1610163;88;21148;-48
2022/11/10 10:08:02;;;;;;;6.75;5.92;;;;;;;18.32;50.29;102665.98;1525594;92;21112;-49
2022/11/10 10:11:06;;;;;;;5.70;4.87;;;;;;;18.30;50.39;102658.09;1542380;93;21066;-50
2022/11/10 10:14:14;;;;;;;6.58;5.87;;;;;;;18.33;50.54;102662.43;1459484;97;21561;-49
2022/11/10 10:17:09;;;;;;;6.40;5.30;;;;;;;18.35;50.43;102656.67;1463504;96;21647;-49
2022/11/10 10:20:15;;;;;;;6.87;5.15;;;;;;;18.37;50.46;102655.73;1502726;94;21613;-49
2022/11/10 10:23:31;;;;;;;7.08;5.58;;;;;;;18.38;50.43;102653.50;1471741;95;21711;-49
2022/11/10 10:26:20;;;;;;;6.80;5.22;;;;;;;18.41;50.29;102653.88;1475179;96;21604;-49
2022/11/10 10:29:09;;;;;;;8.93;5.78;;;;;;;18.42;50.34;102652.52;1470734;96;21130;-51
2022/11/10 10:31:57;;;;;;;8.43;5.62;;;;;;;18.43;50.62;102649.44;1466598;96;21142;-50
2022/11/10 10:34:43;;;;;;;8.23;5.65;;;;;;;18.45;50.36;102655.58;1470199;96;21242;-49
2022/11/10 10:37:51;;;;;;;6.35;5.55;;;;;;;18.47;50.17;102655.08;1473095;93;21608;-50
2022/11/10 10:40:36;;;;;;;7.47;5.28;;;;;;;18.52;50.19;102657.17;1441829;97;21165;-49
2022/11/10 10:43:22;;;;;;;8.08;5.37;;;;;;;18.54;49.84;102658.00;1439255;98;21259;-50
2022/11/10 10:46:10;;;;;;;6.05;5.28;;;;;;;18.52;49.89;102654.53;1507332;94;21124;-50
2022/11/10 10:52:12;;;;;;;8.53;4.90;;;;;;;18.49;49.90;102644.92;1495869;94;21129;-49
2022/11/10 10:55:03;;;;;;;7.30;5.15;;;;;;;18.48;49.92;102651.56;1498524;94;21081;-50
2022/11/10 10:57:51;;;;;;;6.47;4.95;;;;;;;18.47;50.31;102650.69;1489927;94;21634;-49
2022/11/10 11:00:46;;;;;;;8.30;5.25;;;;;;;18.49;50.12;102646.69;1475671;96;21671;-49
2022/11/10 11:03:46;;;;;;;7.85;5.60;;;;;;;18.52;50.19;102647.50;1471971;96;21167;-49
2022/11/10 11:06:32;;;;;;;9.13;5.70;;;;;;;18.57;50.03;102644.72;1422933;97;21585;-51
2022/11/10 11:09:24;;;;;;;8.40;5.30;;;;;;;18.60;50.13;102644.66;1439400;99;21174;-50
2022/11/10 11:12:21;;;;;;;6.08;5.42;;;;;;;18.63;49.96;102641.93;1353189;103;21176;-50
2022/11/10 11:15:27;;;;;;;5.83;4.97;;;;;;;18.63;49.74;102632.26;1374180;102;21140;-50
2022/11/10 11:18:16;;;;;;;7.53;5.20;;;;;;;18.64;49.77;102637.09;1424551;97;21156;-51
2022/11/10 11:21:15;;;;;;;5.22;4.72;;;;;;;18.64;49.73;102639.72;1410213;100;21171;-51
2022/11/10 11:24:06;;;;;;;6.65;5.12;;;;;;;18.62;49.56;102635.81;1400864;100;21145;-49
2022/11/10 11:27:00;;;;;;;6.20;5.23;;;;;;;18.60;49.74;102636.75;1397785;100;21122;-50
2022/11/10 11:30:10;;;;;;;5.95;4.72;;;;;;;18.59;49.78;102636.32;1380372;103;21981;-49
2022/11/10 11:33:12;;;;;;;7.05;5.62;;;;;;;18.59;49.65;102635.88;1394998;101;21150;-51
2022/11/10 11:36:17;;;;;;;5.97;5.37;;;;;;;18.62;49.62;102632.30;1395408;101;21153;-50
2022/11/10 11:39:14;;;;;;;6.78;5.10;;;;;;;18.63;49.49;102634.02;1385861;102;21127;-50
2022/11/10 11:42:46;;;;;;;9.45;6.45;;;;;;;18.66;49.72;102633.95;1372598;104;21121;-51
2022/11/10 11:45:42;;;;;;;10.00;6.17;;;;;;;18.64;49.97;102641.05;1373200;104;21208;-50
2022/11/10 11:48:41;;;;;;;8.80;6.03;;;;;;;18.59;49.98;102631.92;1345585;102;21231;-50
2022/11/10 11:51:41;;;;;;;7.60;5.30;;;;;;;18.59;50.15;102628.41;1396673;101;21169;-50
2022/11/10 11:54:35;;;;;;;5.70;4.95;;;;;;;18.57;50.36;102631.54;1380892;102;21649;-50
2022/11/10 11:57:50;;;;;;;7.08;5.37;;;;;;;18.58;50.18;102625.38;1382779;101;21168;-51
2022/11/10 12:01:06;;;;;;;11.73;5.80;;;;;;;18.61;49.77;102631.88;1391484;101;21129;-50
2022/11/10 12:04:32;;;;;;;7.30;5.85;;;;;;;18.63;49.89;102639.30;1443196;97;21121;-50
2022/11/10 12:08:02;;;;;;;9.43;5.65;;;;;;;18.62;49.84;102641.53;1455018;97;21145;-50
2022/11/10 12:11:28;;;;;;;8.08;5.97;;;;;;;18.61;50.00;102640.66;1449833;98;21134;-50
2022/11/10 12:14:40;;;;;;;6.85;5.90;;;;;;;18.58;50.02;102638.56;1430865;99;21183;-50
2022/11/10 12:17:57;;;;;;;8.00;6.08;;;;;;;18.52;50.24;102641.35;1449258;95;21617;-52
2022/11/10 12:20:54;;;;;;;6.87;5.87;;;;;;;18.47;50.33;102637.95;1447589;97;21147;-50
2022/11/10 12:24:03;;;;;;;7.10;5.25;;;;;;;18.43;50.46;102638.90;1441597;97;21228;-50
2022/11/10 12:27:02;;;;;;;7.15;5.28;;;;;;;18.41;50.57;102638.06;1533848;92;21131;-50
2022/11/10 12:29:51;;;;;;;6.05;5.40;;;;;;;18.40;50.73;102638.98;1549587;91;21089;-50
2022/11/10 12:32:57;;;;;;;6.92;5.67;;;;;;;18.44;50.81;102643.31;1553250;90;21085;-50
2022/11/10 12:35:43;;;;;;;9.58;6.10;;;;;;;18.46;50.73;102638.87;1553071;90;21131;-50
2022/11/10 12:38:49;;;;;;;6.42;5.83;;;;;;;18.48;50.59;102638.38;1509996;94;21112;-49
2022/11/10 12:41:48;;;;;;;8.50;5.70;;;;;;;18.46;50.80;102640.19;1497510;93;21142;-50
2022/11/10 12:45:02;;;;;;;6.53;5.90;;;;;;;18.45;50.68;102643.71;1442211;98;21148;-50
2022/11/10 12:47:48;;;;;;;8.33;6.22;;;;;;;18.42;50.62;102642.45;1433865;98;21177;-50
2022/11/10 12:51:00;;;;;;;7.22;5.85;;;;;;;18.37;50.69;102641.69;1412453;100;21136;-49
2022/11/10 12:53:46;;;;;;;8.48;6.03;;;;;;;18.33;50.57;102645.30;1425655;99;21665;-50
2022/11/10 12:56:44;;;;;;;9.33;6.03;;;;;;;18.27;50.83;102645.45;1432410;98;21121;-49
2022/11/10 12:59:34;;;;;;;6.10;5.50;;;;;;;18.24;50.90;102642.87;1421557;99;21163;-50
2022/11/10 13:02:33;;;;;;;6.90;6.15;;;;;;;18.21;51.00;102644.27;1448314;97;21074;-50
2022/11/10 13:05:37;;;;;;;6.97;6.25;;;;;;;18.21;51.13;102649.10;1429291;98;21165;-50
2022/11/10 13:08:27;;;;;;;8.50;6.30;;;;;;;18.22;51.07;102655.21;1429963;98;22345;-50
2022/11/10 13:11:18;;;;;;;9.75;6.62;;;;;;;18.23;50.97;102653.88;1445700;98;21121;-51
2022/11/10 13:14:05;;;;;;;9.53;6.40;;;;;;;18.21;51.03;102645.59;1430575;98;21088;-51
2022/11/10 13:16:53;;;;;;;8.25;6.12;;;;;;;18.16;51.04;102656.67;1428858;99;21176;-51
2022/11/10 13:19:46;;;;;;;8.20;6.08;;;;;;;18.09;51.06;102662.56;1431311;98;21116;-51
2022/11/10 13:22:36;;;;;;;9.15;6.22;;;;;;;18.03;51.27;102655.24;1453705;97;21169;-51
2022/11/10 13:25:41;;;;;;;6.78;6.05;;;;;;;17.99;51.55;102654.42;1463426;96;21136;-51
2022/11/10 13:28:49;;;;;;;9.75;6.28;;;;;;;17.95;51.52;102651.91;1564923;90;21147;-51
2022/11/10 13:31:39;;;;;;;7.40;5.90;;;;;;;17.90;51.73;102648.06;1574466;89;21627;-51
2022/11/10 13:34:30;;;;;;;9.25;7.33;;;;;;;17.84;51.83;102647.75;1579513;89;21045;-51
2022/11/10 13:37:36;;;;;;;8.15;6.22;;;;;;;17.82;51.76;102648.23;1576666;89;21634;-51
2022/11/10 13:40:30;;;;;;;6.97;6.12;;;;;;;17.79;51.85;102658.82;1479818;96;21596;-51
2022/11/10 13:43:24;;;;;;;8.20;6.42;;;;;;;17.74;51.96;102646.66;1484720;95;21102;-51
2022/11/10 13:46:10;;;;;;;7.15;6.45;;;;;;;17.71;52.17;102655.48;1516102;93;21112;-50
2022/11/10 13:49:15;;;;;;;9.98;6.00;;;;;;;17.69;52.25;102652.02;1586730;89;21152;-51
2022/11/10 13:52:12;;;;;;;6.80;5.75;;;;;;;17.66;52.18;102649.44;1584505;89;21631;-50
2022/11/10 13:55:40;;;;;;;8.28;6.12;;;;;;;17.61;52.27;102651.77;1589705;89;21085;-51
2022/11/10 13:58:28;;;;;;;6.92;6.25;;;;;;;17.55;52.55;102657.16;1601800;86;21110;-50
2022/11/10 14:01:22;;;;;;;6.95;5.58;;;;;;;17.49;52.60;102655.52;1639661;85;20995;-50
2022/11/10 14:04:07;;;;;;;12.75;5.92;;;;;;;17.43;52.85;102663.52;1647451;85;21577;-49
2022/11/10 14:06:53;;;;;;;8.80;6.33;;;;;;;17.40;52.94;102658.30;1625989;86;21549;-50
2022/11/10 14:09:46;;;;;;;7.97;5.78;;;;;;;17.36;53.03;102651.36;1653113;86;21114;-50
2022/11/10 14:12:52;;;;;;;8.55;6.03;;;;;;;17.32;53.06;102652.31;1600584;88;21050;-50
2022/11/10 14:15:43;;;;;;;7.72;6.03;;;;;;;17.29;53.28;102655.47;1635809;85;21173;-50
2022/11/10 14:18:42;;;;;;;8.35;5.95;;;;;;;17.24;53.36;102647.66;1680822;83;21098;-50
2022/11/10 14:21:41;;;;;;;7.17;5.87;;;;;;;17.20;53.51;102648.61;1683614;83;21030;-51
2022/11/10 14:24:30;;;;;;;7.00;5.78;;;;;;;17.16;53.45;102648.70;1676441;83;21352;-50
2022/11/10 14:27:24;;;;;;;8.05;5.90;;;;;;;17.12;53.59;102647.89;1627553;86;21168;-50
2022/11/10 14:30:25;;;;;;;8.58;6.20;;;;;;;17.09;53.82;102645.30;1583312;89;21120;-51
2022/11/10 14:33:13;;;;;;;6.90;5.45;;;;;;;17.08;53.73;102647.53;1568489;90;21583;-49
2022/11/10 14:36:04;;;;;;;8.78;5.90;;;;;;;17.05;53.87;102647.58;1564374;90;21117;-50
2022/11/10 14:38:50;;;;;;;7.03;5.62;;;;;;;17.04;53.92;102645.38;1551591;90;21093;-50
2022/11/10 14:41:36;;;;;;;5.90;5.15;;;;;;;17.03;53.95;102638.84;1579065;89;21074;-50
2022/11/10 14:44:24;;;;;;;7.75;5.95;;;;;;;17.03;54.05;102643.67;1581423;88;21095;-50
2022/11/10 14:47:27;;;;;;;6.53;5.50;;;;;;;17.02;54.01;102641.92;1564517;90;21500;-51
2022/11/10 14:50:19;;;;;;;5.50;5.00;;;;;;;17.03;54.08;102648.05;1525567;93;21075;-50
2022/11/10 14:53:29;;;;;;;6.20;5.50;;;;;;;17.02;54.17;102635.34;1563872;89;21602;-50
2022/11/10 14:56:25;;;;;;;7.00;5.78;;;;;;;17.05;54.08;102641.00;1557014;90;21075;-50
2022/11/10 14:59:10;;;;;;;7.03;5.60;;;;;;;17.07;54.04;102640.52;1488662;95;21628;-50
2022/11/10 15:02:00;;;;;;;6.33;5.72;;;;;;;17.07;54.10;102636.58;1490273;94;21095;-50
2022/11/10 15:04:45;;;;;;;7.90;5.53;;;;;;;17.06;54.22;102640.12;1448501;96;21107;-51
2022/11/10 15:07:30;;;;;;;9.35;5.90;;;;;;;17.07;54.32;102647.09;1488783;95;21156;-50
2022/11/10 15:10:27;;;;;;;8.63;5.87;;;;;;;16.93;54.65;102647.80;1482721;94;21090;-51
2022/11/10 15:13:17;;;;;;;7.42;6.25;;;;;;;16.80;55.05;102648.47;1469444;96;21094;-50
2022/11/10 15:16:29;;;;;;;8.98;6.33;;;;;;;16.78;55.16;102652.01;1444237;97;21202;-50
2022/11/10 15:19:37;;;;;;;7.40;5.70;;;;;;;17.03;54.58;102652.00;1434513;98;21159;-50
2022/11/10 15:22:37;;;;;;;9.20;6.53;;;;;;;16.86;55.00;102656.68;1439145;98;21167;-51
2022/11/10 15:25:24;;;;;;;8.28;6.20;;;;;;;16.91;54.93;102658.80;1485980;95;21164;-50
2022/11/10 15:28:20;;;;;;;7.83;5.87;;;;;;;17.02;54.66;102667.37;1562754;91;21213;-50
2022/11/10 15:31:09;;;;;;;6.87;6.00;;;;;;;17.02;54.69;102666.06;1558623;91;21114;-51
2022/11/10 15:33:57;;;;;;;7.92;5.65;;;;;;;17.03;54.71;102661.20;1531742;92;21085;-51
2022/11/10 15:36:42;;;;;;;6.58;5.85;;;;;;;17.01;54.69;102664.31;1529008;92;21134;-51
2022/11/10 15:39:28;;;;;;;8.28;6.10;;;;;;;16.99;54.74;102660.41;1524810;92;21246;-50